createdAt,value
2023-05-19T00:00:57.728Z,18.62
2023-05-19T00:03:24.825Z,18.59
2023-05-19T00:05:53.906Z,18.56
2023-05-19T00:08:21.326Z,18.55
2023-05-19T00:10:48.004Z,18.53
2023-05-19T00:13:14.587Z,18.52
2023-05-19T00:15:41.443Z,18.51
2023-05-19T00:18:08.910Z,18.49
2023-05-19T00:20:35.522Z,18.47
2023-05-19T00:23:01.981Z,18.45
2023-05-19T00:25:28.446Z,18.44
2023-05-19T00:27:54.817Z,18.42
2023-05-19T00:30:22.878Z,18.41
2023-05-19T00:32:49.351Z,18.38
2023-05-19T00:35:16.789Z,18.38
2023-05-19T00:37:43.190Z,18.36
2023-05-19T00:40:10.759Z,18.34
2023-05-19T00:42:37.265Z,18.33
2023-05-19T00:45:04.060Z,18.32
2023-05-19T00:47:30.958Z,18.31
2023-05-19T00:49:57.408Z,18.30
2023-05-19T00:52:23.885Z,18.27
2023-05-19T00:54:51.747Z,18.26
2023-05-19T00:57:18.244Z,18.24
2023-05-19T00:59:44.968Z,18.23
2023-05-19T01:02:11.390Z,18.22
2023-05-19T01:04:41.774Z,18.21
2023-05-19T01:07:08.207Z,18.20
2023-05-19T01:09:34.742Z,18.18
2023-05-19T01:12:01.786Z,18.17
2023-05-19T01:14:29.630Z,18.16
2023-05-19T01:17:08.076Z,18.15
2023-05-19T01:19:56.425Z,18.13
2023-05-19T01:22:44.930Z,18.13
2023-05-19T01:25:25.960Z,18.11
2023-05-19T01:28:10.476Z,18.09
2023-05-19T01:30:39.821Z,18.07
2023-05-19T01:33:08.956Z,18.06
2023-05-19T01:35:37.354Z,18.05
2023-05-19T01:38:07.572Z,18.04
2023-05-19T01:40:35.037Z,18.03
2023-05-19T01:43:02.183Z,18.02
2023-05-19T01:45:31.081Z,18.00
2023-05-19T01:48:00.804Z,17.99
2023-05-19T01:50:28.154Z,17.97
2023-05-19T01:52:54.664Z,17.97
2023-05-19T01:55:23.700Z,17.96
2023-05-19T01:58:21.246Z,17.96
2023-05-19T02:00:57.183Z,17.93
2023-05-19T02:03:32.787Z,17.92
2023-05-19T02:06:32.739Z,17.90
2023-05-19T02:09:13.274Z,17.88
2023-05-19T02:12:02.978Z,17.88
2023-05-19T02:14:41.886Z,17.86
2023-05-19T02:17:08.784Z,17.86
2023-05-19T02:19:39.111Z,17.85
2023-05-19T02:22:06.232Z,17.84
2023-05-19T02:24:32.781Z,17.83
2023-05-19T02:26:59.549Z,17.82
2023-05-19T02:29:26.175Z,17.80
2023-05-19T02:31:52.597Z,17.79
2023-05-19T02:34:19.047Z,17.78
2023-05-19T02:36:45.434Z,17.78
2023-05-19T02:39:12.220Z,17.76
2023-05-19T02:41:39.142Z,17.76
2023-05-19T02:44:05.723Z,17.74
2023-05-19T02:46:32.210Z,17.74
2023-05-19T02:48:58.656Z,17.74
2023-05-19T02:51:25.122Z,17.72
2023-05-19T02:53:51.603Z,17.72
2023-05-19T02:56:18.083Z,17.71
2023-05-19T02:58:44.590Z,17.70
2023-05-19T03:01:11.130Z,17.69
2023-05-19T03:03:37.587Z,17.68
2023-05-19T03:06:04.885Z,17.68
2023-05-19T03:08:31.328Z,17.66
2023-05-19T03:10:57.722Z,17.64
2023-05-19T03:13:24.143Z,17.64
2023-05-19T03:15:51.120Z,17.62
2023-05-19T03:18:17.781Z,17.62
2023-05-19T03:20:44.666Z,17.62
2023-05-19T03:23:11.155Z,17.60
2023-05-19T03:25:37.588Z,17.61
2023-05-19T03:28:04.072Z,17.59
2023-05-19T03:30:30.753Z,17.58
2023-05-19T03:32:57.369Z,17.58
2023-05-19T03:35:23.813Z,17.56
2023-05-19T03:37:50.458Z,17.55
2023-05-19T03:40:18.747Z,17.54
2023-05-19T03:42:45.277Z,17.54
2023-05-19T03:45:11.759Z,17.53
2023-05-19T03:47:38.228Z,17.52
2023-05-19T03:50:05.131Z,17.51
2023-05-19T03:52:31.544Z,17.51
2023-05-19T03:54:58.684Z,17.51
2023-05-19T03:57:25.196Z,17.48
2023-05-19T03:59:51.727Z,17.49
2023-05-19T04:02:18.161Z,17.49
2023-05-19T04:04:44.813Z,17.48
2023-05-19T04:07:11.718Z,17.47
2023-05-19T04:09:39.003Z,17.46
2023-05-19T04:12:05.925Z,17.46
2023-05-19T04:14:32.354Z,17.44
2023-05-19T04:16:58.991Z,17.44
2023-05-19T04:19:25.613Z,17.43
2023-05-19T04:21:52.087Z,17.43
2023-05-19T04:24:18.498Z,17.42
2023-05-19T04:26:47.025Z,17.41
2023-05-19T04:29:17.821Z,17.41
2023-05-19T04:31:47.488Z,17.41
2023-05-19T04:34:13.955Z,17.40
2023-05-19T04:36:40.504Z,17.41
2023-05-19T04:39:09.499Z,17.40
2023-05-19T04:41:35.953Z,17.39
2023-05-19T04:44:02.343Z,17.39
2023-05-19T04:46:30.031Z,17.39
2023-05-19T04:48:57.157Z,17.39
2023-05-19T04:51:29.808Z,17.39
2023-05-19T04:53:57.610Z,17.39
2023-05-19T04:56:24.129Z,17.38
2023-05-19T04:58:50.753Z,17.38
2023-05-19T05:01:17.158Z,17.39
2023-05-19T05:03:43.718Z,17.38
2023-05-19T05:06:11.348Z,17.39
2023-05-19T05:08:40.127Z,17.39
2023-05-19T05:11:06.912Z,17.38
2023-05-19T05:13:33.800Z,17.38
2023-05-19T05:16:00.563Z,17.37
2023-05-19T05:18:27.291Z,17.38
2023-05-19T05:20:54.176Z,17.40
2023-05-19T05:23:20.887Z,17.39
2023-05-19T05:25:47.668Z,17.40
2023-05-19T05:28:14.275Z,17.41
2023-05-19T05:30:41.477Z,17.40
2023-05-19T05:33:08.106Z,17.40
2023-05-19T05:35:34.777Z,17.41
2023-05-19T05:38:02.219Z,17.41
2023-05-19T05:40:28.997Z,17.40
2023-05-19T05:42:56.823Z,17.41
2023-05-19T05:45:23.489Z,17.42
2023-05-19T05:47:50.526Z,17.41
2023-05-19T05:50:17.759Z,17.43
2023-05-19T05:52:47.818Z,17.44
2023-05-19T05:55:17.349Z,17.45
2023-05-19T05:57:43.809Z,17.46
2023-05-19T06:00:15.378Z,17.46
2023-05-19T06:02:46.472Z,17.46
2023-05-19T06:05:14.016Z,17.46
2023-05-19T06:07:41.307Z,17.47
2023-05-19T06:10:09.914Z,17.50
2023-05-19T06:12:40.568Z,17.53
2023-05-19T06:15:08.067Z,17.55
2023-05-19T06:17:36.073Z,17.57
2023-05-19T06:20:05.544Z,17.64
2023-05-19T06:22:32.259Z,17.70
2023-05-19T06:24:58.721Z,17.73
2023-05-19T06:27:25.539Z,17.76
2023-05-19T06:29:52.307Z,17.79
2023-05-19T06:32:18.701Z,17.81
2023-05-19T06:34:45.114Z,17.84
2023-05-19T06:37:11.824Z,17.86
2023-05-19T06:39:38.476Z,17.88
2023-05-19T06:42:05.077Z,17.92
2023-05-19T06:44:31.524Z,17.95
2023-05-19T06:46:58.051Z,17.97
2023-05-19T06:49:24.594Z,18.01
2023-05-19T06:51:51.008Z,18.03
2023-05-19T06:54:17.593Z,18.02
2023-05-19T06:56:44.005Z,18.04
2023-05-19T06:59:10.836Z,18.05
2023-05-19T07:01:37.826Z,18.05
2023-05-19T07:04:04.585Z,18.05
2023-05-19T07:06:31.260Z,18.06
2023-05-19T07:08:57.677Z,18.07
2023-05-19T07:11:24.583Z,18.07
2023-05-19T07:13:51.005Z,18.09
2023-05-19T07:16:17.436Z,18.08
2023-05-19T07:18:43.994Z,18.09
2023-05-19T07:21:10.616Z,18.10
2023-05-19T07:23:37.031Z,18.10
2023-05-19T07:26:03.561Z,18.11
2023-05-19T07:28:30.086Z,18.13
2023-05-19T07:30:56.484Z,18.14
2023-05-19T07:33:23.065Z,18.14
2023-05-19T07:35:49.547Z,18.17
2023-05-19T07:38:16.153Z,18.19
2023-05-19T07:40:42.527Z,18.19
2023-05-19T07:43:09.028Z,18.21
2023-05-19T07:45:35.471Z,18.22
2023-05-19T07:48:01.941Z,18.24
2023-05-19T07:50:28.383Z,18.27
2023-05-19T07:52:55.061Z,18.29
2023-05-19T07:55:23.085Z,18.31
2023-05-19T07:57:50.903Z,18.33
2023-05-19T08:00:17.752Z,18.34
2023-05-19T08:02:45.052Z,18.37
2023-05-19T08:05:11.580Z,18.42
2023-05-19T08:07:38.163Z,18.47
2023-05-19T08:10:04.987Z,18.53
2023-05-19T08:12:31.428Z,18.57
2023-05-19T08:14:58.939Z,18.62
2023-05-19T08:17:27.617Z,18.66
2023-05-19T08:19:54.042Z,18.72
2023-05-19T08:22:20.749Z,18.75
2023-05-19T08:24:49.633Z,18.78
2023-05-19T08:27:16.688Z,18.82
2023-05-19T08:29:43.429Z,18.85
2023-05-19T08:32:12.412Z,18.87
2023-05-19T08:34:39.730Z,18.88
2023-05-19T08:37:06.919Z,18.92
2023-05-19T08:39:34.726Z,18.95
2023-05-19T08:42:01.558Z,18.99
2023-05-19T08:44:28.361Z,18.99
2023-05-19T08:46:56.140Z,19.03
2023-05-19T08:49:26.723Z,19.06
2023-05-19T08:52:13.862Z,19.10
2023-05-19T08:54:46.858Z,19.18
2023-05-19T08:57:14.093Z,19.22
2023-05-19T08:59:41.497Z,19.28
2023-05-19T09:02:11.382Z,19.33
2023-05-19T09:04:39.672Z,19.37
2023-05-19T09:07:06.128Z,19.42
2023-05-19T09:09:32.637Z,19.44
2023-05-19T09:11:59.076Z,19.48
2023-05-19T09:14:25.908Z,19.50
2023-05-19T09:16:53.003Z,19.52
2023-05-19T09:19:20.819Z,19.55
2023-05-19T09:22:00.073Z,19.56
2023-05-19T09:24:27.157Z,19.59
2023-05-19T09:26:57.996Z,19.63
2023-05-19T09:29:26.353Z,19.65
2023-05-19T09:31:55.976Z,19.66
2023-05-19T09:34:24.712Z,19.68
2023-05-19T09:36:53.150Z,19.69
2023-05-19T09:39:21.987Z,19.70
2023-05-19T09:41:54.115Z,19.72
2023-05-19T09:44:20.992Z,19.76
2023-05-19T09:46:48.704Z,19.77
2023-05-19T09:49:22.264Z,19.80
2023-05-19T09:51:57.901Z,19.80
2023-05-19T09:54:25.470Z,19.83
2023-05-19T09:57:04.843Z,19.83
2023-05-19T09:59:33.739Z,19.84
2023-05-19T10:02:02.095Z,19.84
2023-05-19T10:04:30.238Z,19.86
2023-05-19T10:06:59.840Z,19.86
2023-05-19T10:09:28.180Z,19.86
2023-05-19T10:11:56.247Z,19.90
2023-05-19T10:14:24.587Z,19.94
2023-05-19T10:16:52.742Z,19.99
2023-05-19T10:19:23.796Z,20.06
2023-05-19T10:21:51.022Z,20.10
2023-05-19T10:24:18.177Z,20.17
2023-05-19T10:26:49.570Z,20.21
2023-05-19T10:29:21.609Z,20.23
2023-05-19T10:31:51.667Z,20.31
2023-05-19T10:34:57.124Z,20.37
2023-05-19T10:37:45.508Z,20.44
2023-05-19T10:40:25.398Z,20.48
2023-05-19T10:43:04.806Z,20.52
2023-05-19T10:45:36.506Z,20.58
2023-05-19T10:48:03.168Z,20.60
2023-05-19T10:50:37.277Z,20.65
2023-05-19T10:53:03.758Z,20.69
2023-05-19T10:55:50.381Z,20.76
2023-05-19T10:58:36.408Z,20.83
2023-05-19T11:01:06.928Z,20.88
2023-05-19T11:03:43.094Z,20.90
2023-05-19T11:06:32.993Z,20.94
2023-05-19T11:09:13.535Z,21.05
2023-05-19T11:11:53.910Z,21.13
2023-05-19T11:14:23.041Z,21.14
2023-05-19T11:16:51.679Z,21.13
2023-05-19T11:19:29.124Z,21.13
2023-05-19T11:21:57.334Z,21.18
2023-05-19T11:24:36.599Z,21.22
2023-05-19T11:27:24.334Z,21.28
2023-05-19T11:29:51.701Z,21.32
2023-05-19T11:32:18.686Z,21.38
2023-05-19T11:34:45.847Z,21.45
2023-05-19T11:37:12.317Z,21.54
2023-05-19T11:39:39.780Z,21.63
2023-05-19T11:42:06.769Z,21.80
2023-05-19T11:44:33.164Z,22.15
2023-05-19T11:47:00.158Z,22.54
2023-05-19T11:49:29.501Z,23.12
2023-05-19T11:51:56.411Z,24.25
2023-05-19T11:54:30.532Z,25.44
2023-05-19T11:56:57.741Z,25.92
2023-05-19T11:59:36.268Z,25.85
2023-05-19T12:02:17.237Z,25.59
2023-05-19T12:04:43.832Z,25.51
2023-05-19T12:07:14.589Z,25.82
2023-05-19T12:09:41.056Z,25.91
2023-05-19T12:12:07.728Z,25.91
2023-05-19T12:14:34.481Z,25.73
2023-05-19T12:17:10.470Z,25.83
2023-05-19T12:19:37.360Z,25.27
2023-05-19T12:22:05.054Z,24.51
2023-05-19T12:24:33.824Z,24.04
2023-05-19T12:27:20.694Z,23.73
2023-05-19T12:29:52.273Z,23.54
2023-05-19T12:32:19.659Z,23.37
2023-05-19T12:34:46.103Z,23.23
2023-05-19T12:37:12.552Z,23.13
2023-05-19T12:39:39.774Z,23.06
2023-05-19T12:42:10.703Z,23.02
2023-05-19T12:44:49.743Z,23.01
2023-05-19T12:47:16.998Z,23.01
2023-05-19T12:49:56.896Z,22.97
2023-05-19T12:52:23.771Z,22.95
2023-05-19T12:54:52.301Z,22.93
2023-05-19T12:57:20.963Z,22.89
2023-05-19T12:59:48.190Z,22.88
2023-05-19T13:02:15.055Z,22.90
2023-05-19T13:04:41.577Z,22.88
2023-05-19T13:07:08.052Z,22.88
2023-05-19T13:09:36.320Z,22.87
2023-05-19T13:12:02.834Z,22.86
2023-05-19T13:14:29.264Z,22.79
2023-05-19T13:16:55.740Z,22.77
2023-05-19T13:19:25.687Z,22.75
2023-05-19T13:21:52.571Z,22.74
2023-05-19T13:24:18.992Z,22.70
2023-05-19T13:26:45.487Z,22.66
2023-05-19T13:29:11.994Z,22.62
2023-05-19T13:31:38.567Z,22.63
2023-05-19T13:34:05.201Z,22.68
2023-05-19T13:36:33.317Z,22.69
2023-05-19T13:39:00.707Z,22.63
2023-05-19T13:41:29.304Z,22.58
2023-05-19T13:44:01.463Z,22.57
2023-05-19T13:46:40.728Z,22.60
2023-05-19T13:49:10.892Z,22.66
2023-05-19T13:51:37.583Z,22.60
2023-05-19T13:54:04.931Z,22.63
2023-05-19T13:56:31.759Z,22.66
2023-05-19T13:58:58.226Z,22.63
2023-05-19T14:01:24.722Z,22.63
2023-05-19T14:03:51.532Z,22.67
2023-05-19T14:06:18.125Z,22.62
2023-05-19T14:08:45.303Z,22.55
2023-05-19T14:11:19.591Z,22.55
2023-05-19T14:13:46.858Z,22.59
2023-05-19T14:16:13.376Z,22.54
2023-05-19T14:18:39.850Z,22.52
2023-05-19T14:21:06.276Z,22.48
2023-05-19T14:23:32.675Z,22.50
2023-05-19T14:25:59.207Z,22.45
2023-05-19T14:28:26.159Z,22.44
2023-05-19T14:30:52.740Z,22.51
2023-05-19T14:33:21.080Z,22.55
2023-05-19T14:35:47.502Z,22.66
2023-05-19T14:38:14.027Z,22.72
2023-05-19T14:40:41.410Z,22.99
2023-05-19T14:43:08.008Z,23.61
2023-05-19T14:45:35.322Z,24.10
2023-05-19T14:48:02.033Z,24.18
2023-05-19T14:50:29.292Z,23.95
2023-05-19T14:52:56.720Z,23.57
2023-05-19T14:55:23.159Z,23.26
2023-05-19T14:57:50.194Z,23.05
2023-05-19T15:00:17.883Z,22.92
2023-05-19T15:02:44.571Z,22.80
2023-05-19T15:05:11.742Z,22.71
2023-05-19T15:07:38.258Z,22.67
2023-05-19T15:10:05.003Z,22.65
2023-05-19T15:12:31.480Z,22.62
2023-05-19T15:14:58.100Z,22.58
2023-05-19T15:17:24.722Z,22.53
2023-05-19T15:19:51.220Z,22.46
2023-05-19T15:22:17.681Z,22.41
2023-05-19T15:24:44.181Z,22.37
2023-05-19T15:27:10.813Z,22.35
2023-05-19T15:29:37.180Z,22.33
2023-05-19T15:32:03.765Z,22.31
2023-05-19T15:34:30.138Z,22.29
2023-05-19T15:36:56.546Z,22.26
2023-05-19T15:39:23.048Z,22.21
2023-05-19T15:41:52.489Z,22.16
2023-05-19T15:44:18.886Z,22.17
2023-05-19T15:46:45.421Z,22.19
2023-05-19T15:49:12.759Z,22.17
2023-05-19T15:51:39.709Z,22.14
2023-05-19T15:54:06.217Z,22.12
2023-05-19T15:56:32.596Z,22.11
2023-05-19T15:58:59.053Z,22.11
2023-05-19T16:01:26.332Z,22.10
2023-05-19T16:03:53.043Z,22.05
2023-05-19T16:06:20.750Z,22.03
2023-05-19T16:08:47.185Z,22.03
2023-05-19T16:11:14.418Z,21.98
2023-05-19T16:13:40.861Z,21.95
2023-05-19T16:16:07.517Z,21.92
2023-05-19T16:18:34.029Z,21.87
2023-05-19T16:21:00.413Z,21.86
2023-05-19T16:23:27.480Z,21.84
2023-05-19T16:25:54.681Z,21.83
2023-05-19T16:28:22.505Z,21.83
2023-05-19T16:30:50.920Z,21.81
2023-05-19T16:33:17.388Z,21.78
2023-05-19T16:35:44.039Z,21.78
2023-05-19T16:38:10.519Z,21.78
2023-05-19T16:40:37.167Z,21.78
2023-05-19T16:43:03.760Z,21.80
2023-05-19T16:45:30.338Z,21.77
2023-05-19T16:47:56.918Z,21.76
2023-05-19T16:50:23.381Z,21.77
2023-05-19T16:52:49.846Z,21.76
2023-05-19T16:55:19.665Z,21.75
2023-05-19T16:57:46.756Z,21.75
2023-05-19T17:00:14.084Z,21.73
2023-05-19T17:02:40.629Z,21.73
2023-05-19T17:05:07.515Z,21.71
2023-05-19T17:07:33.910Z,21.69
2023-05-19T17:10:00.317Z,21.67
2023-05-19T17:12:26.764Z,21.65
2023-05-19T17:14:53.242Z,21.62
2023-05-19T17:17:19.670Z,21.60
2023-05-19T17:19:46.718Z,21.58
2023-05-19T17:22:13.093Z,21.56
2023-05-19T17:24:39.515Z,21.52
2023-05-19T17:27:06.083Z,21.48
2023-05-19T17:29:32.535Z,21.49
2023-05-19T17:31:59.037Z,21.47
2023-05-19T17:34:25.464Z,21.46
2023-05-19T17:36:51.879Z,21.42
2023-05-19T17:39:20.146Z,21.41
2023-05-19T17:41:46.630Z,21.38
2023-05-19T17:44:13.065Z,21.36
2023-05-19T17:46:39.593Z,21.33
2023-05-19T17:49:06.461Z,21.32
2023-05-19T17:51:33.177Z,21.29
2023-05-19T17:53:59.913Z,21.28
2023-05-19T17:56:27.827Z,21.25
2023-05-19T17:58:54.502Z,21.23
2023-05-19T18:01:23.993Z,21.21
2023-05-19T18:03:50.688Z,21.20
2023-05-19T18:06:18.269Z,21.18
2023-05-19T18:08:50.765Z,21.16
2023-05-19T18:11:19.024Z,21.13
2023-05-19T18:13:45.653Z,21.10
2023-05-19T18:16:12.444Z,21.08
2023-05-19T18:18:41.160Z,21.04
2023-05-19T18:21:07.649Z,21.03
2023-05-19T18:23:34.079Z,21.02
2023-05-19T18:26:00.558Z,20.99
2023-05-19T18:28:27.015Z,20.98
2023-05-19T18:31:00.582Z,20.96
2023-05-19T18:33:28.741Z,20.96
2023-05-19T18:35:57.973Z,20.95
2023-05-19T18:38:24.506Z,20.93
2023-05-19T18:40:51.351Z,20.94
2023-05-19T18:43:18.550Z,20.90
2023-05-19T18:45:47.963Z,20.89
2023-05-19T18:48:15.388Z,20.88
2023-05-19T18:50:44.048Z,20.86
2023-05-19T18:53:11.668Z,20.84
2023-05-19T18:55:38.624Z,20.82
2023-05-19T18:58:06.152Z,20.78
2023-05-19T19:00:33.186Z,20.77
2023-05-19T19:03:00.091Z,20.76
2023-05-19T19:05:26.585Z,20.73
2023-05-19T19:07:53.266Z,20.71
2023-05-19T19:10:19.918Z,20.69
2023-05-19T19:12:46.601Z,20.68
2023-05-19T19:15:13.131Z,20.65
2023-05-19T19:17:42.573Z,20.68
2023-05-19T19:20:09.630Z,20.72
2023-05-19T19:22:36.292Z,20.73
2023-05-19T19:25:02.724Z,20.72
2023-05-19T19:27:31.256Z,20.70
2023-05-19T19:29:58.626Z,20.67
2023-05-19T19:32:25.631Z,20.66
2023-05-19T19:34:55.195Z,20.68
2023-05-19T19:37:21.625Z,20.68
2023-05-19T19:39:48.115Z,20.67
2023-05-19T19:42:14.592Z,20.65
2023-05-19T19:44:40.999Z,20.64
2023-05-19T19:47:07.605Z,20.63
2023-05-19T19:49:34.008Z,20.62
2023-05-19T19:52:00.504Z,20.60
2023-05-19T19:54:26.968Z,20.60
2023-05-19T19:56:53.441Z,20.58
2023-05-19T19:59:19.921Z,20.57
2023-05-19T20:01:46.464Z,20.56
2023-05-19T20:04:13.172Z,20.55
2023-05-19T20:06:39.846Z,20.55
2023-05-19T20:09:06.756Z,20.55
2023-05-19T20:11:33.153Z,20.53
2023-05-19T20:13:59.592Z,20.50
2023-05-19T20:16:26.410Z,20.48
2023-05-19T20:18:52.908Z,20.48
2023-05-19T20:21:19.337Z,20.48
2023-05-19T20:23:46.180Z,20.46
2023-05-19T20:26:13.603Z,20.45
2023-05-19T20:28:40.414Z,20.45
2023-05-19T20:31:07.284Z,20.41
2023-05-19T20:33:33.840Z,20.40
2023-05-19T20:36:00.304Z,20.43
2023-05-19T20:38:27.051Z,20.44
2023-05-19T20:40:54.306Z,20.43
2023-05-19T20:43:21.211Z,20.40
2023-05-19T20:45:47.834Z,20.38
2023-05-19T20:48:15.877Z,20.36
2023-05-19T20:50:42.427Z,20.35
2023-05-19T20:53:08.834Z,20.36
2023-05-19T20:55:36.518Z,20.35
2023-05-19T20:58:03.064Z,20.34
2023-05-19T21:00:30.582Z,20.31
2023-05-19T21:02:57.461Z,20.29
2023-05-19T21:05:24.171Z,20.27
2023-05-19T21:07:50.596Z,20.29
2023-05-19T21:10:17.930Z,20.30
2023-05-19T21:12:44.471Z,20.28
2023-05-19T21:15:11.429Z,20.25
2023-05-19T21:17:37.966Z,20.24
2023-05-19T21:20:05.077Z,20.22
2023-05-19T21:22:31.533Z,20.23
2023-05-19T21:24:57.987Z,20.27
2023-05-19T21:27:24.480Z,20.28
2023-05-19T21:29:54.394Z,20.28
2023-05-19T21:32:22.117Z,20.27
2023-05-19T21:34:48.617Z,20.26
2023-05-19T21:37:17.174Z,20.27
2023-05-19T21:39:43.936Z,20.25
2023-05-19T21:42:10.439Z,20.24
2023-05-19T21:44:36.948Z,20.24
2023-05-19T21:47:03.396Z,20.21
2023-05-19T21:49:29.814Z,20.20
2023-05-19T21:51:56.220Z,20.18
2023-05-19T21:54:22.675Z,20.17
2023-05-19T21:56:49.109Z,20.17
2023-05-19T21:59:15.750Z,20.18
2023-05-19T22:01:42.269Z,20.16
2023-05-19T22:04:09.341Z,20.14
2023-05-19T22:06:35.995Z,20.12
2023-05-19T22:09:02.616Z,20.11
2023-05-19T22:11:28.995Z,20.12
2023-05-19T22:13:55.578Z,20.12
2023-05-19T22:16:22.164Z,20.14
2023-05-19T22:18:48.641Z,20.12
2023-05-19T22:21:15.055Z,20.10
2023-05-19T22:23:41.455Z,20.07
2023-05-19T22:26:07.855Z,20.07
2023-05-19T22:28:34.361Z,20.09
2023-05-19T22:31:00.781Z,20.09
2023-05-19T22:33:27.242Z,20.08
2023-05-19T22:35:53.897Z,20.05
2023-05-19T22:38:20.496Z,20.04
2023-05-19T22:40:46.975Z,20.02
2023-05-19T22:43:13.410Z,19.99
2023-05-19T22:45:39.978Z,19.97
2023-05-19T22:48:06.610Z,19.95
2023-05-19T22:50:33.064Z,19.93
2023-05-19T22:52:59.470Z,19.90
2023-05-19T22:55:25.863Z,19.88
2023-05-19T22:57:52.248Z,19.84
2023-05-19T23:00:20.644Z,19.83
2023-05-19T23:02:47.308Z,19.82
2023-05-19T23:05:13.703Z,19.79
2023-05-19T23:07:40.349Z,19.78
2023-05-19T23:10:07.639Z,19.76
2023-05-19T23:12:34.312Z,19.74
2023-05-19T23:15:01.164Z,19.74
2023-05-19T23:17:27.699Z,19.72
2023-05-19T23:19:54.175Z,19.69
2023-05-19T23:22:20.595Z,19.68
2023-05-19T23:24:47.067Z,19.67
2023-05-19T23:27:13.445Z,19.66
2023-05-19T23:29:39.804Z,19.65
2023-05-19T23:32:06.526Z,19.64
2023-05-19T23:34:32.901Z,19.63
2023-05-19T23:36:59.326Z,19.60
2023-05-19T23:39:25.902Z,19.60
2023-05-19T23:41:52.335Z,19.59
2023-05-19T23:44:18.892Z,19.57
2023-05-19T23:46:45.354Z,19.55
2023-05-19T23:49:11.772Z,19.54
2023-05-19T23:51:38.200Z,19.53
2023-05-19T23:54:04.601Z,19.52
2023-05-19T23:56:31.062Z,19.51
2023-05-19T23:58:57.477Z,19.49
